sensor_id;sensor_type;location;lat;lon;timestamp;P1;durP1;ratioP1;P2;durP2;ratioP2
5351;SDS011;2698;51.454;6.736;2022-08-21T00:01:35;20.03;;;6.07;;
5351;SDS011;2698;51.454;6.736;2022-08-21T00:04:03;13.20;;;5.33;;
5351;SDS011;2698;51.454;6.736;2022-08-21T00:06:31;16.50;;;6.90;;
5351;SDS011;2698;51.454;6.736;2022-08-21T00:08:58;10.57;;;5.90;;
5351;SDS011;2698;51.454;6.736;2022-08-21T00:11:25;8.90;;;5.53;;
5351;SDS011;2698;51.454;6.736;2022-08-21T00:13:53;10.53;;;5.43;;
5351;SDS011;2698;51.454;6.736;2022-08-21T00:16:20;19.60;;;6.07;;
5351;SDS011;2698;51.454;6.736;2022-08-21T00:18:48;14.77;;;5.90;;
5351;SDS011;2698;51.454;6.736;2022-08-21T00:21:15;16.50;;;5.83;;
5351;SDS011;2698;51.454;6.736;2022-08-21T00:23:42;16.43;;;6.37;;
5351;SDS011;2698;51.454;6.736;2022-08-21T00:26:09;14.97;;;5.17;;
5351;SDS011;2698;51.454;6.736;2022-08-21T00:28:36;11.27;;;4.90;;
5351;SDS011;2698;51.454;6.736;2022-08-21T00:31:03;11.43;;;5.20;;
5351;SDS011;2698;51.454;6.736;2022-08-21T00:33:30;19.40;;;6.03;;
5351;SDS011;2698;51.454;6.736;2022-08-21T00:35:59;11.10;;;5.20;;
5351;SDS011;2698;51.454;6.736;2022-08-21T00:38:26;12.47;;;5.37;;
5351;SDS011;2698;51.454;6.736;2022-08-21T00:40:54;17.27;;;5.87;;
5351;SDS011;2698;51.454;6.736;2022-08-21T00:43:26;7.70;;;5.40;;
5351;SDS011;2698;51.454;6.736;2022-08-21T00:45:56;16.63;;;6.27;;
5351;SDS011;2698;51.454;6.736;2022-08-21T00:48:24;22.60;;;7.27;;
5351;SDS011;2698;51.454;6.736;2022-08-21T00:50:52;13.70;;;5.83;;
5351;SDS011;2698;51.454;6.736;2022-08-21T00:53:24;14.40;;;6.60;;
5351;SDS011;2698;51.454;6.736;2022-08-21T00:55:52;15.27;;;5.77;;
5351;SDS011;2698;51.454;6.736;2022-08-21T00:58:19;9.40;;;5.53;;
5351;SDS011;2698;51.454;6.736;2022-08-21T01:00:47;11.03;;;6.37;;
5351;SDS011;2698;51.454;6.736;2022-08-21T01:03:17;19.77;;;6.87;;
5351;SDS011;2698;51.454;6.736;2022-08-21T01:05:46;10.77;;;5.40;;
5351;SDS011;2698;51.454;6.736;2022-08-21T01:08:13;11.90;;;6.37;;
5351;SDS011;2698;51.454;6.736;2022-08-21T01:10:44;10.73;;;5.70;;
5351;SDS011;2698;51.454;6.736;2022-08-21T01:13:13;14.00;;;6.43;;
5351;SDS011;2698;51.454;6.736;2022-08-21T01:15:43;11.80;;;6.40;;
5351;SDS011;2698;51.454;6.736;2022-08-21T01:18:13;14.30;;;6.07;;
5351;SDS011;2698;51.454;6.736;2022-08-21T01:20:42;18.90;;;7.73;;
5351;SDS011;2698;51.454;6.736;2022-08-21T01:23:12;12.70;;;6.87;;
5351;SDS011;2698;51.454;6.736;2022-08-21T01:25:39;11.60;;;6.77;;
5351;SDS011;2698;51.454;6.736;2022-08-21T01:28:13;17.63;;;7.10;;
5351;SDS011;2698;51.454;6.736;2022-08-21T01:30:40;10.53;;;6.67;;
5351;SDS011;2698;51.454;6.736;2022-08-21T01:33:09;20.43;;;7.23;;
5351;SDS011;2698;51.454;6.736;2022-08-21T01:35:36;8.10;;;6.10;;
5351;SDS011;2698;51.454;6.736;2022-08-21T01:38:03;19.40;;;7.53;;
5351;SDS011;2698;51.454;6.736;2022-08-21T01:40:32;14.13;;;7.13;;
5351;SDS011;2698;51.454;6.736;2022-08-21T01:42:58;9.43;;;6.87;;
5351;SDS011;2698;51.454;6.736;2022-08-21T01:45:25;14.53;;;7.03;;
5351;SDS011;2698;51.454;6.736;2022-08-21T01:47:52;9.40;;;6.80;;
5351;SDS011;2698;51.454;6.736;2022-08-21T01:50:19;14.83;;;6.70;;
5351;SDS011;2698;51.454;6.736;2022-08-21T01:52:47;11.17;;;8.07;;
5351;SDS011;2698;51.454;6.736;2022-08-21T01:55:15;11.70;;;6.20;;
5351;SDS011;2698;51.454;6.736;2022-08-21T01:57:44;18.40;;;7.83;;
5351;SDS011;2698;51.454;6.736;2022-08-21T02:00:13;27.83;;;8.23;;
5351;SDS011;2698;51.454;6.736;2022-08-21T02:02:41;22.97;;;8.67;;
5351;SDS011;2698;51.454;6.736;2022-08-21T02:05:10;17.73;;;9.20;;
5351;SDS011;2698;51.454;6.736;2022-08-21T02:07:38;27.67;;;9.87;;
5351;SDS011;2698;51.454;6.736;2022-08-21T02:10:07;23.00;;;8.53;;
5351;SDS011;2698;51.454;6.736;2022-08-21T02:12:35;18.73;;;8.93;;
5351;SDS011;2698;51.454;6.736;2022-08-21T02:15:04;15.13;;;9.53;;
5351;SDS011;2698;51.454;6.736;2022-08-21T02:17:39;15.07;;;7.90;;
5351;SDS011;2698;51.454;6.736;2022-08-21T02:20:08;17.40;;;9.13;;
5351;SDS011;2698;51.454;6.736;2022-08-21T02:22:35;27.50;;;10.27;;
5351;SDS011;2698;51.454;6.736;2022-08-21T02:25:02;12.73;;;8.43;;
5351;SDS011;2698;51.454;6.736;2022-08-21T02:27:32;20.93;;;9.10;;
5351;SDS011;2698;51.454;6.736;2022-08-21T02:30:06;12.03;;;7.70;;
5351;SDS011;2698;51.454;6.736;2022-08-21T02:32:34;19.30;;;7.50;;
5351;SDS011;2698;51.454;6.736;2022-08-21T02:35:01;23.50;;;9.00;;
5351;SDS011;2698;51.454;6.736;2022-08-21T02:37:28;16.53;;;8.67;;
5351;SDS011;2698;51.454;6.736;2022-08-21T02:39:55;20.87;;;9.63;;
5351;SDS011;2698;51.454;6.736;2022-08-21T02:42:22;18.57;;;9.07;;
5351;SDS011;2698;51.454;6.736;2022-08-21T02:44:48;14.67;;;9.07;;
5351;SDS011;2698;51.454;6.736;2022-08-21T02:47:17;21.37;;;9.40;;
5351;SDS011;2698;51.454;6.736;2022-08-21T02:49:43;23.53;;;8.07;;
5351;SDS011;2698;51.454;6.736;2022-08-21T02:52:10;21.63;;;8.90;;
5351;SDS011;2698;51.454;6.736;2022-08-21T02:54:37;16.17;;;9.03;;
5351;SDS011;2698;51.454;6.736;2022-08-21T02:57:04;10.60;;;8.07;;
5351;SDS011;2698;51.454;6.736;2022-08-21T02:59:31;21.90;;;10.50;;
5351;SDS011;2698;51.454;6.736;2022-08-21T03:01:58;27.80;;;9.67;;
5351;SDS011;2698;51.454;6.736;2022-08-21T03:04:26;23.60;;;11.03;;
5351;SDS011;2698;51.454;6.736;2022-08-21T03:06:53;17.47;;;11.27;;
5351;SDS011;2698;51.454;6.736;2022-08-21T03:09:19;15.77;;;8.90;;
5351;SDS011;2698;51.454;6.736;2022-08-21T03:11:46;23.63;;;11.10;;
5351;SDS011;2698;51.454;6.736;2022-08-21T03:14:13;23.43;;;9.83;;
5351;SDS011;2698;51.454;6.736;2022-08-21T03:16:40;16.80;;;9.80;;
5351;SDS011;2698;51.454;6.736;2022-08-21T03:19:07;20.00;;;10.40;;
5351;SDS011;2698;51.454;6.736;2022-08-21T03:21:35;20.00;;;10.40;;
5351;SDS011;2698;51.454;6.736;2022-08-21T03:24:02;18.00;;;9.83;;
5351;SDS011;2698;51.454;6.736;2022-08-21T03:26:31;18.97;;;10.70;;
5351;SDS011;2698;51.454;6.736;2022-08-21T03:28:59;30.60;;;11.70;;
5351;SDS011;2698;51.454;6.736;2022-08-21T03:31:26;22.10;;;11.80;;
5351;SDS011;2698;51.454;6.736;2022-08-21T03:33:55;20.60;;;10.53;;
5351;SDS011;2698;51.454;6.736;2022-08-21T03:36:22;15.47;;;11.17;;
5351;SDS011;2698;51.454;6.736;2022-08-21T03:38:51;27.13;;;11.57;;
5351;SDS011;2698;51.454;6.736;2022-08-21T03:41:17;19.40;;;12.60;;
5351;SDS011;2698;51.454;6.736;2022-08-21T03:43:44;25.40;;;11.63;;
5351;SDS011;2698;51.454;6.736;2022-08-21T03:46:11;21.57;;;12.27;;
5351;SDS011;2698;51.454;6.736;2022-08-21T03:48:38;14.60;;;10.83;;
5351;SDS011;2698;51.454;6.736;2022-08-21T03:51:06;21.50;;;12.70;;
5351;SDS011;2698;51.454;6.736;2022-08-21T03:53:33;27.00;;;11.53;;
5351;SDS011;2698;51.454;6.736;2022-08-21T03:56:01;18.97;;;11.40;;
5351;SDS011;2698;51.454;6.736;2022-08-21T03:58:28;21.90;;;12.37;;
5351;SDS011;2698;51.454;6.736;2022-08-21T04:00:56;22.30;;;12.40;;
5351;SDS011;2698;51.454;6.736;2022-08-21T04:03:25;26.77;;;12.73;;
5351;SDS011;2698;51.454;6.736;2022-08-21T04:05:52;26.80;;;12.70;;
5351;SDS011;2698;51.454;6.736;2022-08-21T04:08:19;21.23;;;11.70;;
5351;SDS011;2698;51.454;6.736;2022-08-21T04:10:47;14.43;;;9.90;;
5351;SDS011;2698;51.454;6.736;2022-08-21T04:13:18;21.53;;;11.90;;
5351;SDS011;2698;51.454;6.736;2022-08-21T04:15:45;22.20;;;12.47;;
5351;SDS011;2698;51.454;6.736;2022-08-21T04:18:12;21.50;;;12.20;;
5351;SDS011;2698;51.454;6.736;2022-08-21T04:20:39;22.00;;;12.57;;
5351;SDS011;2698;51.454;6.736;2022-08-21T04:23:08;26.37;;;11.60;;
5351;SDS011;2698;51.454;6.736;2022-08-21T04:25:35;20.10;;;13.00;;
5351;SDS011;2698;51.454;6.736;2022-08-21T04:28:03;20.37;;;12.00;;
5351;SDS011;2698;51.454;6.736;2022-08-21T04:30:31;17.30;;;11.80;;
5351;SDS011;2698;51.454;6.736;2022-08-21T04:33:00;25.80;;;10.60;;
5351;SDS011;2698;51.454;6.736;2022-08-21T04:35:28;18.43;;;12.00;;
5351;SDS011;2698;51.454;6.736;2022-08-21T04:37:56;18.83;;;11.57;;
5351;SDS011;2698;51.454;6.736;2022-08-21T04:40:24;20.10;;;11.40;;
5351;SDS011;2698;51.454;6.736;2022-08-21T04:42:54;24.63;;;12.27;;
5351;SDS011;2698;51.454;6.736;2022-08-21T04:45:24;20.73;;;11.80;;
5351;SDS011;2698;51.454;6.736;2022-08-21T04:47:55;19.00;;;12.03;;
5351;SDS011;2698;51.454;6.736;2022-08-21T04:50:24;23.30;;;12.30;;
5351;SDS011;2698;51.454;6.736;2022-08-21T04:52:55;21.33;;;12.97;;
5351;SDS011;2698;51.454;6.736;2022-08-21T04:55:22;17.77;;;11.53;;
5351;SDS011;2698;51.454;6.736;2022-08-21T04:57:52;18.33;;;12.33;;
5351;SDS011;2698;51.454;6.736;2022-08-21T05:00:19;25.90;;;13.33;;
5351;SDS011;2698;51.454;6.736;2022-08-21T05:02:49;19.00;;;11.60;;
5351;SDS011;2698;51.454;6.736;2022-08-21T05:05:22;20.00;;;12.90;;
5351;SDS011;2698;51.454;6.736;2022-08-21T05:07:49;26.03;;;13.67;;
5351;SDS011;2698;51.454;6.736;2022-08-21T05:10:17;24.07;;;12.90;;
5351;SDS011;2698;51.454;6.736;2022-08-21T05:12:44;21.87;;;12.47;;
5351;SDS011;2698;51.454;6.736;2022-08-21T05:15:11;26.27;;;13.90;;
5351;SDS011;2698;51.454;6.736;2022-08-21T05:17:39;19.77;;;12.30;;
5351;SDS011;2698;51.454;6.736;2022-08-21T05:20:06;21.47;;;12.37;;
5351;SDS011;2698;51.454;6.736;2022-08-21T05:22:35;23.37;;;12.43;;
5351;SDS011;2698;51.454;6.736;2022-08-21T05:25:02;23.87;;;13.50;;
5351;SDS011;2698;51.454;6.736;2022-08-21T05:27:29;20.07;;;12.90;;
5351;SDS011;2698;51.454;6.736;2022-08-21T05:29:57;28.63;;;13.50;;
5351;SDS011;2698;51.454;6.736;2022-08-21T05:32:24;22.07;;;13.00;;
5351;SDS011;2698;51.454;6.736;2022-08-21T05:34:52;16.83;;;13.30;;
5351;SDS011;2698;51.454;6.736;2022-08-21T05:37:19;27.73;;;12.60;;
5351;SDS011;2698;51.454;6.736;2022-08-21T05:39:48;22.80;;;12.40;;
5351;SDS011;2698;51.454;6.736;2022-08-21T05:42:15;26.37;;;12.90;;
5351;SDS011;2698;51.454;6.736;2022-08-21T05:44:41;23.47;;;12.47;;
5351;SDS011;2698;51.454;6.736;2022-08-21T05:47:09;22.93;;;11.67;;
5351;SDS011;2698;51.454;6.736;2022-08-21T05:49:38;20.40;;;11.40;;
5351;SDS011;2698;51.454;6.736;2022-08-21T05:52:05;25.27;;;11.23;;
5351;SDS011;2698;51.454;6.736;2022-08-21T05:54:31;14.07;;;10.47;;
5351;SDS011;2698;51.454;6.736;2022-08-21T05:57:00;20.07;;;11.57;;
5351;SDS011;2698;51.454;6.736;2022-08-21T05:59:27;15.20;;;9.47;;
5351;SDS011;2698;51.454;6.736;2022-08-21T06:01:54;21.10;;;10.67;;
5351;SDS011;2698;51.454;6.736;2022-08-21T06:04:21;16.00;;;9.70;;
5351;SDS011;2698;51.454;6.736;2022-08-21T06:06:47;15.83;;;8.90;;
5351;SDS011;2698;51.454;6.736;2022-08-21T06:09:14;19.73;;;10.50;;
5351;SDS011;2698;51.454;6.736;2022-08-21T06:11:41;19.10;;;9.00;;
5351;SDS011;2698;51.454;6.736;2022-08-21T06:14:09;20.37;;;8.60;;
5351;SDS011;2698;51.454;6.736;2022-08-21T06:16:39;21.23;;;8.43;;
5351;SDS011;2698;51.454;6.736;2022-08-21T06:19:06;18.33;;;8.67;;
5351;SDS011;2698;51.454;6.736;2022-08-21T06:21:33;15.97;;;8.33;;
5351;SDS011;2698;51.454;6.736;2022-08-21T06:23:59;23.40;;;9.87;;
5351;SDS011;2698;51.454;6.736;2022-08-21T06:26:26;18.00;;;8.30;;
5351;SDS011;2698;51.454;6.736;2022-08-21T06:28:54;16.97;;;6.77;;
5351;SDS011;2698;51.454;6.736;2022-08-21T06:31:23;18.57;;;8.33;;
5351;SDS011;2698;51.454;6.736;2022-08-21T06:33:52;15.37;;;8.20;;
5351;SDS011;2698;51.454;6.736;2022-08-21T06:36:19;18.50;;;7.60;;
5351;SDS011;2698;51.454;6.736;2022-08-21T06:38:46;13.50;;;7.53;;
5351;SDS011;2698;51.454;6.736;2022-08-21T06:41:14;16.13;;;8.70;;
5351;SDS011;2698;51.454;6.736;2022-08-21T06:43:40;13.67;;;7.73;;
5351;SDS011;2698;51.454;6.736;2022-08-21T06:46:07;12.30;;;6.80;;
5351;SDS011;2698;51.454;6.736;2022-08-21T06:48:35;13.10;;;6.10;;
5351;SDS011;2698;51.454;6.736;2022-08-21T06:51:02;15.13;;;6.30;;
5351;SDS011;2698;51.454;6.736;2022-08-21T06:53:30;18.13;;;6.50;;
5351;SDS011;2698;51.454;6.736;2022-08-21T06:55:57;14.13;;;6.53;;
5351;SDS011;2698;51.454;6.736;2022-08-21T06:58:24;14.40;;;6.10;;
5351;SDS011;2698;51.454;6.736;2022-08-21T07:00:51;13.80;;;6.00;;
5351;SDS011;2698;51.454;6.736;2022-08-21T07:03:20;15.80;;;6.20;;
5351;SDS011;2698;51.454;6.736;2022-08-21T07:05:51;10.73;;;6.23;;
5351;SDS011;2698;51.454;6.736;2022-08-21T07:08:18;13.00;;;6.00;;
5351;SDS011;2698;51.454;6.736;2022-08-21T07:10:45;13.93;;;5.67;;
5351;SDS011;2698;51.454;6.736;2022-08-21T07:13:13;15.03;;;5.67;;
5351;SDS011;2698;51.454;6.736;2022-08-21T07:15:40;10.87;;;4.90;;
5351;SDS011;2698;51.454;6.736;2022-08-21T07:18:08;16.50;;;4.93;;
5351;SDS011;2698;51.454;6.736;2022-08-21T07:20:34;10.00;;;5.07;;
5351;SDS011;2698;51.454;6.736;2022-08-21T07:23:06;7.83;;;4.63;;
5351;SDS011;2698;51.454;6.736;2022-08-21T07:25:34;10.83;;;3.37;;
5351;SDS011;2698;51.454;6.736;2022-08-21T07:28:01;6.87;;;3.47;;
5351;SDS011;2698;51.454;6.736;2022-08-21T07:30:29;17.40;;;3.80;;
5351;SDS011;2698;51.454;6.736;2022-08-21T07:32:56;11.63;;;3.30;;
5351;SDS011;2698;51.454;6.736;2022-08-21T07:35:23;8.43;;;3.40;;
5351;SDS011;2698;51.454;6.736;2022-08-21T07:37:50;6.90;;;2.93;;
5351;SDS011;2698;51.454;6.736;2022-08-21T07:40:18;4.17;;;2.70;;
5351;SDS011;2698;51.454;6.736;2022-08-21T07:42:46;5.67;;;3.47;;
5351;SDS011;2698;51.454;6.736;2022-08-21T07:45:16;11.33;;;2.90;;
5351;SDS011;2698;51.454;6.736;2022-08-21T07:47:44;7.37;;;3.50;;
5351;SDS011;2698;51.454;6.736;2022-08-21T07:50:11;5.03;;;2.80;;
5351;SDS011;2698;51.454;6.736;2022-08-21T07:52:39;11.00;;;2.87;;
5351;SDS011;2698;51.454;6.736;2022-08-21T07:55:07;7.93;;;2.80;;
5351;SDS011;2698;51.454;6.736;2022-08-21T07:57:37;5.70;;;2.70;;
5351;SDS011;2698;51.454;6.736;2022-08-21T08:00:05;7.87;;;2.67;;
5351;SDS011;2698;51.454;6.736;2022-08-21T08:02:33;8.30;;;2.83;;
5351;SDS011;2698;51.454;6.736;2022-08-21T08:05:00;10.23;;;2.97;;
5351;SDS011;2698;51.454;6.736;2022-08-21T08:07:28;7.10;;;2.83;;
5351;SDS011;2698;51.454;6.736;2022-08-21T08:09:55;5.80;;;2.40;;
5351;SDS011;2698;51.454;6.736;2022-08-21T08:12:23;11.00;;;3.00;;
5351;SDS011;2698;51.454;6.736;2022-08-21T08:14:55;5.30;;;2.50;;
5351;SDS011;2698;51.454;6.736;2022-08-21T08:17:22;3.83;;;2.83;;
5351;SDS011;2698;51.454;6.736;2022-08-21T08:19:49;10.00;;;3.13;;
5351;SDS011;2698;51.454;6.736;2022-08-21T08:22:17;7.10;;;3.03;;
5351;SDS011;2698;51.454;6.736;2022-08-21T08:24:45;10.57;;;3.30;;
5351;SDS011;2698;51.454;6.736;2022-08-21T08:27:13;13.53;;;3.03;;
5351;SDS011;2698;51.454;6.736;2022-08-21T08:29:40;10.73;;;3.10;;
5351;SDS011;2698;51.454;6.736;2022-08-21T08:32:08;6.23;;;2.70;;
5351;SDS011;2698;51.454;6.736;2022-08-21T08:34:35;4.83;;;2.50;;
5351;SDS011;2698;51.454;6.736;2022-08-21T08:37:03;10.67;;;2.57;;
5351;SDS011;2698;51.454;6.736;2022-08-21T08:39:31;3.30;;;2.00;;
5351;SDS011;2698;51.454;6.736;2022-08-21T08:41:59;7.37;;;2.30;;
5351;SDS011;2698;51.454;6.736;2022-08-21T08:44:31;7.80;;;2.40;;
5351;SDS011;2698;51.454;6.736;2022-08-21T08:46:59;11.67;;;2.50;;
5351;SDS011;2698;51.454;6.736;2022-08-21T08:49:31;6.77;;;2.63;;
5351;SDS011;2698;51.454;6.736;2022-08-21T08:52:03;7.03;;;2.13;;
5351;SDS011;2698;51.454;6.736;2022-08-21T08:54:39;8.40;;;3.00;;
5351;SDS011;2698;51.454;6.736;2022-08-21T08:57:10;4.40;;;2.37;;
5351;SDS011;2698;51.454;6.736;2022-08-21T08:59:43;5.60;;;3.43;;
5351;SDS011;2698;51.454;6.736;2022-08-21T09:02:12;6.03;;;2.90;;
5351;SDS011;2698;51.454;6.736;2022-08-21T09:04:41;8.27;;;3.03;;
5351;SDS011;2698;51.454;6.736;2022-08-21T09:07:11;4.43;;;2.70;;
5351;SDS011;2698;51.454;6.736;2022-08-21T09:09:48;7.40;;;2.90;;
5351;SDS011;2698;51.454;6.736;2022-08-21T09:12:25;6.20;;;2.60;;
5351;SDS011;2698;51.454;6.736;2022-08-21T09:15:02;3.17;;;2.30;;
5351;SDS011;2698;51.454;6.736;2022-08-21T09:17:39;12.43;;;3.27;;
5351;SDS011;2698;51.454;6.736;2022-08-21T09:20:17;6.77;;;2.30;;
5351;SDS011;2698;51.454;6.736;2022-08-21T09:22:53;5.77;;;2.20;;
5351;SDS011;2698;51.454;6.736;2022-08-21T09:25:39;5.50;;;2.43;;
5351;SDS011;2698;51.454;6.736;2022-08-21T09:28:09;4.47;;;2.50;;
5351;SDS011;2698;51.454;6.736;2022-08-21T09:30:39;4.40;;;2.00;;
5351;SDS011;2698;51.454;6.736;2022-08-21T09:33:07;6.70;;;2.27;;
5351;SDS011;2698;51.454;6.736;2022-08-21T09:35:47;4.47;;;2.03;;
5351;SDS011;2698;51.454;6.736;2022-08-21T09:38:23;7.23;;;2.43;;
5351;SDS011;2698;51.454;6.736;2022-08-21T09:40:55;5.83;;;2.23;;
5351;SDS011;2698;51.454;6.736;2022-08-21T09:43:25;6.13;;;2.20;;
5351;SDS011;2698;51.454;6.736;2022-08-21T09:46:01;4.27;;;2.10;;
5351;SDS011;2698;51.454;6.736;2022-08-21T09:48:39;5.03;;;2.23;;
5351;SDS011;2698;51.454;6.736;2022-08-21T09:51:11;4.43;;;2.10;;
5351;SDS011;2698;51.454;6.736;2022-08-21T09:53:41;6.47;;;2.43;;
5351;SDS011;2698;51.454;6.736;2022-08-21T09:56:17;6.57;;;2.37;;
5351;SDS011;2698;51.454;6.736;2022-08-21T09:59:13;10.20;;;2.77;;
5351;SDS011;2698;51.454;6.736;2022-08-21T10:01:43;5.30;;;2.30;;
5351;SDS011;2698;51.454;6.736;2022-08-21T10:04:11;9.67;;;2.63;;
5351;SDS011;2698;51.454;6.736;2022-08-21T10:06:40;6.70;;;2.70;;
5351;SDS011;2698;51.454;6.736;2022-08-21T10:09:08;5.00;;;2.20;;
5351;SDS011;2698;51.454;6.736;2022-08-21T10:11:36;8.07;;;1.87;;
5351;SDS011;2698;51.454;6.736;2022-08-21T10:14:07;4.37;;;1.70;;
5351;SDS011;2698;51.454;6.736;2022-08-21T10:16:47;3.23;;;2.37;;
5351;SDS011;2698;51.454;6.736;2022-08-21T10:19:25;8.53;;;2.43;;
5351;SDS011;2698;51.454;6.736;2022-08-21T10:22:07;7.27;;;2.20;;
5351;SDS011;2698;51.454;6.736;2022-08-21T10:24:45;3.80;;;2.20;;
5351;SDS011;2698;51.454;6.736;2022-08-21T10:27:24;4.50;;;2.10;;
5351;SDS011;2698;51.454;6.736;2022-08-21T10:30:04;7.23;;;2.90;;
5351;SDS011;2698;51.454;6.736;2022-08-21T10:32:37;4.37;;;2.10;;
5351;SDS011;2698;51.454;6.736;2022-08-21T10:35:22;3.23;;;1.80;;
5351;SDS011;2698;51.454;6.736;2022-08-21T10:38:03;4.03;;;1.93;;
5351;SDS011;2698;51.454;6.736;2022-08-21T10:40:51;2.43;;;1.90;;
5351;SDS011;2698;51.454;6.736;2022-08-21T10:43:25;6.80;;;2.03;;
5351;SDS011;2698;51.454;6.736;2022-08-21T10:45:57;5.87;;;2.50;;
5351;SDS011;2698;51.454;6.736;2022-08-21T10:48:33;8.17;;;2.70;;
5351;SDS011;2698;51.454;6.736;2022-08-21T10:51:06;5.47;;;2.33;;
5351;SDS011;2698;51.454;6.736;2022-08-21T10:53:45;5.47;;;2.23;;
5351;SDS011;2698;51.454;6.736;2022-08-21T10:56:18;4.77;;;1.83;;
5351;SDS011;2698;51.454;6.736;2022-08-21T10:58:57;2.17;;;1.77;;
5351;SDS011;2698;51.454;6.736;2022-08-21T11:01:34;6.67;;;2.70;;
5351;SDS011;2698;51.454;6.736;2022-08-21T11:04:13;6.43;;;1.90;;
5351;SDS011;2698;51.454;6.736;2022-08-21T11:06:46;8.30;;;1.77;;
5351;SDS011;2698;51.454;6.736;2022-08-21T11:09:18;7.03;;;2.03;;
5351;SDS011;2698;51.454;6.736;2022-08-21T11:11:47;5.40;;;2.40;;
5351;SDS011;2698;51.454;6.736;2022-08-21T11:14:18;4.87;;;1.80;;
5351;SDS011;2698;51.454;6.736;2022-08-21T11:16:53;8.83;;;1.67;;
5351;SDS011;2698;51.454;6.736;2022-08-21T11:19:28;2.30;;;1.80;;
5351;SDS011;2698;51.454;6.736;2022-08-21T11:22:00;3.87;;;2.13;;
5351;SDS011;2698;51.454;6.736;2022-08-21T11:24:38;7.03;;;2.13;;
5351;SDS011;2698;51.454;6.736;2022-08-21T11:27:13;4.27;;;1.90;;
5351;SDS011;2698;51.454;6.736;2022-08-21T11:29:48;3.57;;;2.10;;
5351;SDS011;2698;51.454;6.736;2022-08-21T11:32:24;3.90;;;2.07;;
5351;SDS011;2698;51.454;6.736;2022-08-21T11:35:09;7.90;;;2.13;;
5351;SDS011;2698;51.454;6.736;2022-08-21T11:37:45;3.23;;;1.33;;
5351;SDS011;2698;51.454;6.736;2022-08-21T11:40:26;2.97;;;2.07;;
5351;SDS011;2698;51.454;6.736;2022-08-21T11:43:07;4.20;;;1.77;;
5351;SDS011;2698;51.454;6.736;2022-08-21T11:45:39;1.50;;;1.33;;
5351;SDS011;2698;51.454;6.736;2022-08-21T11:48:15;6.67;;;1.80;;
5351;SDS011;2698;51.454;6.736;2022-08-21T11:50:54;6.47;;;2.30;;
5351;SDS011;2698;51.454;6.736;2022-08-21T11:53:24;1.90;;;1.70;;
5351;SDS011;2698;51.454;6.736;2022-08-21T11:55:59;3.33;;;1.60;;
5351;SDS011;2698;51.454;6.736;2022-08-21T11:58:30;4.80;;;1.40;;
5351;SDS011;2698;51.454;6.736;2022-08-21T12:01:03;5.53;;;1.70;;
5351;SDS011;2698;51.454;6.736;2022-08-21T12:03:34;6.43;;;2.00;;
5351;SDS011;2698;51.454;6.736;2022-08-21T12:06:05;8.43;;;2.57;;
5351;SDS011;2698;51.454;6.736;2022-08-21T12:08:34;5.40;;;1.97;;
5351;SDS011;2698;51.454;6.736;2022-08-21T12:11:06;6.70;;;2.07;;
5351;SDS011;2698;51.454;6.736;2022-08-21T12:13:35;7.40;;;1.77;;
5351;SDS011;2698;51.454;6.736;2022-08-21T12:16:07;4.17;;;1.70;;
5351;SDS011;2698;51.454;6.736;2022-08-21T12:18:35;6.63;;;2.10;;
5351;SDS011;2698;51.454;6.736;2022-08-21T12:21:17;4.60;;;1.80;;
5351;SDS011;2698;51.454;6.736;2022-08-21T12:23:47;3.97;;;1.57;;
5351;SDS011;2698;51.454;6.736;2022-08-21T12:26:27;6.00;;;1.87;;
5351;SDS011;2698;51.454;6.736;2022-08-21T12:29:03;6.43;;;1.40;;
5351;SDS011;2698;51.454;6.736;2022-08-21T12:31:33;7.13;;;1.90;;
5351;SDS011;2698;51.454;6.736;2022-08-21T12:34:01;9.67;;;2.83;;
5351;SDS011;2698;51.454;6.736;2022-08-21T12:36:38;3.83;;;1.93;;
5351;SDS011;2698;51.454;6.736;2022-08-21T12:39:11;10.33;;;2.53;;
5351;SDS011;2698;51.454;6.736;2022-08-21T12:41:43;5.33;;;1.50;;
5351;SDS011;2698;51.454;6.736;2022-08-21T12:44:15;3.33;;;1.60;;
5351;SDS011;2698;51.454;6.736;2022-08-21T12:46:46;7.60;;;1.90;;
5351;SDS011;2698;51.454;6.736;2022-08-21T12:49:18;6.80;;;1.97;;
5351;SDS011;2698;51.454;6.736;2022-08-21T12:51:54;6.80;;;1.90;;
5351;SDS011;2698;51.454;6.736;2022-08-21T12:54:23;3.70;;;2.50;;
5351;SDS011;2698;51.454;6.736;2022-08-21T12:56:57;2.80;;;2.00;;
5351;SDS011;2698;51.454;6.736;2022-08-21T12:59:26;3.13;;;1.47;;
5351;SDS011;2698;51.454;6.736;2022-08-21T13:01:54;8.53;;;1.60;;
5351;SDS011;2698;51.454;6.736;2022-08-21T13:04:23;9.50;;;1.73;;
5351;SDS011;2698;51.454;6.736;2022-08-21T13:06:57;2.20;;;1.30;;
5351;SDS011;2698;51.454;6.736;2022-08-21T13:09:26;4.70;;;1.77;;
5351;SDS011;2698;51.454;6.736;2022-08-21T13:11:54;2.40;;;1.63;;
5351;SDS011;2698;51.454;6.736;2022-08-21T13:14:24;2.93;;;1.70;;
5351;SDS011;2698;51.454;6.736;2022-08-21T13:16:55;3.40;;;1.73;;
5351;SDS011;2698;51.454;6.736;2022-08-21T13:19:23;3.20;;;1.33;;
5351;SDS011;2698;51.454;6.736;2022-08-21T13:21:50;2.20;;;1.80;;
5351;SDS011;2698;51.454;6.736;2022-08-21T13:24:20;3.97;;;1.67;;
5351;SDS011;2698;51.454;6.736;2022-08-21T13:26:49;3.27;;;1.53;;
5351;SDS011;2698;51.454;6.736;2022-08-21T13:29:19;5.10;;;1.80;;
5351;SDS011;2698;51.454;6.736;2022-08-21T13:31:49;3.70;;;1.63;;
5351;SDS011;2698;51.454;6.736;2022-08-21T13:34:20;5.60;;;2.23;;
5351;SDS011;2698;51.454;6.736;2022-08-21T13:36:51;5.93;;;2.10;;
5351;SDS011;2698;51.454;6.736;2022-08-21T13:39:21;3.33;;;2.30;;
5351;SDS011;2698;51.454;6.736;2022-08-21T13:41:49;3.33;;;2.13;;
5351;SDS011;2698;51.454;6.736;2022-08-21T13:44:22;2.60;;;1.80;;
5351;SDS011;2698;51.454;6.736;2022-08-21T13:46:53;5.03;;;2.43;;
5351;SDS011;2698;51.454;6.736;2022-08-21T13:49:22;6.70;;;2.33;;
5351;SDS011;2698;51.454;6.736;2022-08-21T13:51:54;4.73;;;2.50;;
5351;SDS011;2698;51.454;6.736;2022-08-21T13:54:22;6.00;;;1.97;;
5351;SDS011;2698;51.454;6.736;2022-08-21T13:56:52;3.67;;;1.90;;
5351;SDS011;2698;51.454;6.736;2022-08-21T13:59:26;10.57;;;2.33;;
5351;SDS011;2698;51.454;6.736;2022-08-21T14:01:56;4.80;;;1.90;;
5351;SDS011;2698;51.454;6.736;2022-08-21T14:04:26;7.60;;;2.97;;
5351;SDS011;2698;51.454;6.736;2022-08-21T14:06:58;7.33;;;2.50;;
5351;SDS011;2698;51.454;6.736;2022-08-21T14:09:26;5.73;;;2.27;;
5351;SDS011;2698;51.454;6.736;2022-08-21T14:11:57;6.70;;;2.10;;
5351;SDS011;2698;51.454;6.736;2022-08-21T14:14:27;6.43;;;2.50;;
5351;SDS011;2698;51.454;6.736;2022-08-21T14:16:58;6.90;;;2.13;;
5351;SDS011;2698;51.454;6.736;2022-08-21T14:19:27;4.87;;;2.20;;
5351;SDS011;2698;51.454;6.736;2022-08-21T14:22:12;6.47;;;2.60;;
5351;SDS011;2698;51.454;6.736;2022-08-21T14:24:49;4.67;;;2.20;;
5351;SDS011;2698;51.454;6.736;2022-08-21T14:27:24;13.83;;;1.97;;
5351;SDS011;2698;51.454;6.736;2022-08-21T14:29:57;9.47;;;2.00;;
5351;SDS011;2698;51.454;6.736;2022-08-21T14:32:28;11.83;;;2.50;;
5351;SDS011;2698;51.454;6.736;2022-08-21T14:35:00;3.70;;;1.70;;
5351;SDS011;2698;51.454;6.736;2022-08-21T14:37:27;4.83;;;2.23;;
5351;SDS011;2698;51.454;6.736;2022-08-21T14:39:54;5.10;;;2.23;;
5351;SDS011;2698;51.454;6.736;2022-08-21T14:42:21;9.40;;;2.03;;
5351;SDS011;2698;51.454;6.736;2022-08-21T14:44:48;4.53;;;1.60;;
5351;SDS011;2698;51.454;6.736;2022-08-21T14:47:15;4.00;;;1.73;;
5351;SDS011;2698;51.454;6.736;2022-08-21T14:49:43;3.83;;;2.00;;
5351;SDS011;2698;51.454;6.736;2022-08-21T14:52:10;11.20;;;2.47;;
5351;SDS011;2698;51.454;6.736;2022-08-21T14:54:37;4.67;;;2.70;;
5351;SDS011;2698;51.454;6.736;2022-08-21T14:57:06;6.93;;;2.13;;
5351;SDS011;2698;51.454;6.736;2022-08-21T14:59:34;5.80;;;2.07;;
5351;SDS011;2698;51.454;6.736;2022-08-21T15:02:03;4.33;;;2.20;;
5351;SDS011;2698;51.454;6.736;2022-08-21T15:04:31;8.23;;;2.20;;
5351;SDS011;2698;51.454;6.736;2022-08-21T15:06:59;5.50;;;2.50;;
5351;SDS011;2698;51.454;6.736;2022-08-21T15:09:26;8.60;;;2.60;;
5351;SDS011;2698;51.454;6.736;2022-08-21T15:11:55;5.17;;;2.43;;
5351;SDS011;2698;51.454;6.736;2022-08-21T15:14:25;6.33;;;1.73;;
5351;SDS011;2698;51.454;6.736;2022-08-21T15:16:54;12.13;;;2.70;;
5351;SDS011;2698;51.454;6.736;2022-08-21T15:19:21;9.07;;;2.20;;
5351;SDS011;2698;51.454;6.736;2022-08-21T15:21:47;3.30;;;2.27;;